createdAt,value
2022-12-17T00:02:47.037Z,-4.04
2022-12-17T00:05:37.547Z,-3.96
2022-12-17T00:08:28.287Z,-4.21
2022-12-17T00:11:29.135Z,-3.98
2022-12-17T00:14:19.097Z,-4.00
2022-12-17T00:17:10.655Z,-4.28
2022-12-17T00:20:01.282Z,-4.06
2022-12-17T00:22:52.055Z,-4.24
2022-12-17T00:25:44.686Z,-4.11
2022-12-17T00:28:35.218Z,-4.32
2022-12-17T00:31:33.487Z,-4.31
2022-12-17T00:34:24.362Z,-4.42
2022-12-17T00:37:15.025Z,-4.21
2022-12-17T00:40:05.271Z,-4.34
2022-12-17T00:42:56.406Z,-4.41
2022-12-17T00:45:46.853Z,-4.47
2022-12-17T00:48:38.065Z,-4.36
2022-12-17T00:51:29.227Z,-4.46
2022-12-17T00:54:20.029Z,-4.35
2022-12-17T00:57:11.021Z,-4.26
2022-12-17T01:00:01.880Z,-4.50
2022-12-17T01:02:52.588Z,-4.44
2022-12-17T01:05:43.442Z,-4.49
2022-12-17T01:08:34.279Z,-4.32
2022-12-17T01:11:26.020Z,-4.37
2022-12-17T01:14:16.681Z,-4.44
2022-12-17T01:17:06.878Z,-4.29
2022-12-17T01:19:57.588Z,-4.47
2022-12-17T01:22:48.266Z,-4.33
2022-12-17T01:25:38.507Z,-4.32
2022-12-17T01:28:29.176Z,-4.47
2022-12-17T01:31:20.432Z,-4.35
2022-12-17T01:34:11.144Z,-4.50
2022-12-17T01:37:01.337Z,-4.41
2022-12-17T01:39:52.217Z,-4.46
2022-12-17T01:42:42.760Z,-4.52
2022-12-17T01:45:33.801Z,-4.49
2022-12-17T01:48:32.518Z,-4.43
2022-12-17T01:51:23.988Z,-4.32
2022-12-17T01:54:14.626Z,-4.39
2022-12-17T01:57:05.272Z,-4.38
2022-12-17T02:00:15.164Z,-4.36
2022-12-17T02:03:05.726Z,-4.35
2022-12-17T02:06:22.556Z,-4.24
2022-12-17T02:09:30.924Z,-4.18
2022-12-17T02:12:56.754Z,-4.34
2022-12-17T02:15:53.327Z,-4.38
2022-12-17T02:18:52.134Z,-4.38
2022-12-17T02:21:45.495Z,-4.31
2022-12-17T02:24:41.980Z,-4.12
2022-12-17T02:27:33.103Z,-4.26
2022-12-17T02:30:26.596Z,-4.33
2022-12-17T02:33:18.736Z,-4.20
2022-12-17T02:36:14.376Z,-4.21
2022-12-17T02:39:04.974Z,-4.73
2022-12-17T02:42:08.750Z,-4.24
2022-12-17T02:45:01.348Z,-4.26
2022-12-17T02:47:52.094Z,-4.22
2022-12-17T02:50:42.919Z,-4.19
2022-12-17T02:53:33.483Z,-4.23
2022-12-17T02:56:24.553Z,-4.16
2022-12-17T02:59:15.328Z,-4.42
2022-12-17T03:02:06.259Z,-4.40
2022-12-17T03:05:00.269Z,-4.32
2022-12-17T03:08:01.519Z,-4.31
2022-12-17T03:10:52.282Z,-4.36
2022-12-17T03:13:44.920Z,-4.43
2022-12-17T03:16:38.265Z,-4.36
2022-12-17T03:19:29.473Z,-4.32
2022-12-17T03:22:19.840Z,-4.51
2022-12-17T03:25:10.323Z,-4.53
2022-12-17T03:28:00.880Z,-4.53
2022-12-17T03:30:51.461Z,-4.89
2022-12-17T03:33:42.176Z,-4.63
2022-12-17T03:36:32.357Z,-4.62
2022-12-17T03:39:23.541Z,-4.61
2022-12-17T03:42:37.813Z,-4.74
2022-12-17T03:45:29.059Z,-4.75
2022-12-17T03:48:28.109Z,-4.77
2022-12-17T03:51:19.958Z,-4.77
2022-12-17T03:54:10.789Z,-4.64
2022-12-17T03:57:01.618Z,-4.64
2022-12-17T03:59:51.961Z,-4.68
2022-12-17T04:02:42.771Z,-4.85
2022-12-17T04:05:33.959Z,-4.80
2022-12-17T04:08:24.753Z,-4.77
2022-12-17T04:11:15.394Z,-4.85
2022-12-17T04:14:05.356Z,-4.93
2022-12-17T04:16:55.959Z,-4.75
2022-12-17T04:19:46.652Z,-5.12
2022-12-17T04:22:36.917Z,-4.72
2022-12-17T04:25:27.774Z,-4.68
2022-12-17T04:28:18.580Z,-4.70
2022-12-17T04:31:08.785Z,-4.58
2022-12-17T04:33:59.605Z,-4.71
2022-12-17T04:36:50.349Z,-4.66
2022-12-17T04:39:40.377Z,-4.77
2022-12-17T04:42:31.068Z,-4.75
2022-12-17T04:45:21.246Z,-4.58
2022-12-17T04:48:20.738Z,-4.58
2022-12-17T04:51:11.419Z,-4.63
2022-12-17T04:54:02.152Z,-4.68
2022-12-17T04:56:52.332Z,-4.55
2022-12-17T04:59:43.056Z,-4.70
2022-12-17T05:02:37.041Z,-4.72
2022-12-17T05:05:30.508Z,-4.55
2022-12-17T05:08:21.185Z,-4.71
2022-12-17T05:11:11.289Z,-4.75
2022-12-17T05:14:01.904Z,-4.90
2022-12-17T05:16:52.087Z,-4.80
2022-12-17T05:19:42.577Z,-4.94
2022-12-17T05:22:33.213Z,-4.95
2022-12-17T05:25:23.804Z,-4.83
2022-12-17T05:28:14.453Z,-4.66
2022-12-17T05:31:10.474Z,-4.79
2022-12-17T05:34:03.651Z,-4.78
2022-12-17T05:36:54.336Z,-4.84
2022-12-17T05:39:44.572Z,-4.64
2022-12-17T05:42:35.314Z,-4.99
2022-12-17T05:45:26.081Z,-4.85
2022-12-17T05:48:17.438Z,-5.01
2022-12-17T05:51:09.506Z,-5.22
2022-12-17T05:54:00.775Z,-5.06
2022-12-17T05:56:51.513Z,-5.05
2022-12-17T05:59:42.231Z,-5.01
2022-12-17T06:02:32.944Z,-5.01
2022-12-17T06:05:23.777Z,-4.75
2022-12-17T06:08:24.589Z,-4.84
2022-12-17T06:11:18.345Z,-4.80
2022-12-17T06:14:08.931Z,-4.83
2022-12-17T06:16:59.464Z,-4.96
2022-12-17T06:19:50.122Z,-5.16
2022-12-17T06:22:40.369Z,-4.96
2022-12-17T06:25:31.126Z,-4.88
2022-12-17T06:28:21.776Z,-4.94
2022-12-17T06:31:14.256Z,-4.95
2022-12-17T06:34:04.948Z,-5.12
2022-12-17T06:36:55.251Z,-5.14
2022-12-17T06:39:46.020Z,-5.12
2022-12-17T06:42:36.551Z,-5.06
2022-12-17T06:45:27.721Z,-5.06
2022-12-17T06:48:25.569Z,-5.08
2022-12-17T06:51:16.305Z,-5.14
2022-12-17T06:54:06.524Z,-5.07
2022-12-17T06:56:57.438Z,-5.18
2022-12-17T06:59:48.489Z,-5.20
2022-12-17T07:02:39.132Z,-5.16
2022-12-17T07:05:29.899Z,-5.22
2022-12-17T07:08:20.405Z,-5.04
2022-12-17T07:11:11.025Z,-5.16
2022-12-17T07:14:03.124Z,-5.04
2022-12-17T07:16:53.662Z,-5.23
2022-12-17T07:19:43.904Z,-5.10
2022-12-17T07:22:34.553Z,-5.08
2022-12-17T07:25:25.307Z,-5.05
2022-12-17T07:28:16.141Z,-4.97
2022-12-17T07:31:06.918Z,-4.82
2022-12-17T07:33:57.672Z,-5.15
2022-12-17T07:36:48.531Z,-5.07
2022-12-17T07:39:39.423Z,-4.94
2022-12-17T07:42:30.123Z,-5.06
2022-12-17T07:45:20.056Z,-4.83
2022-12-17T07:48:12.297Z,-4.99
2022-12-17T07:51:07.086Z,-4.85
2022-12-17T07:53:57.854Z,-4.93
2022-12-17T07:56:48.510Z,-4.82
2022-12-17T07:59:38.660Z,-4.86
2022-12-17T08:02:29.971Z,-4.90
2022-12-17T08:05:20.604Z,-4.90
2022-12-17T08:08:11.179Z,-4.86
2022-12-17T08:11:05.960Z,-4.67
2022-12-17T08:13:56.632Z,-4.74
2022-12-17T08:16:47.288Z,-4.96
2022-12-17T08:19:37.769Z,-4.84
2022-12-17T08:22:28.601Z,-4.96
2022-12-17T08:25:19.161Z,-5.05
2022-12-17T08:28:41.236Z,-5.13
2022-12-17T08:31:25.565Z,-4.95
2022-12-17T08:34:16.212Z,-5.01
2022-12-17T08:37:06.395Z,-4.88
2022-12-17T08:39:56.960Z,-4.97
2022-12-17T08:42:47.498Z,-5.01
2022-12-17T08:45:38.298Z,-4.81
2022-12-17T08:48:28.872Z,-4.98
2022-12-17T08:51:39.521Z,-4.88
2022-12-17T08:54:30.187Z,-4.96
2022-12-17T08:57:31.393Z,-4.83
2022-12-17T09:00:23.396Z,-4.83
2022-12-17T09:03:21.433Z,-4.84
2022-12-17T09:06:12.286Z,-4.96
2022-12-17T09:09:03.035Z,-4.91
2022-12-17T09:11:55.866Z,-4.75
2022-12-17T09:14:46.578Z,-4.76
2022-12-17T09:17:36.912Z,-4.64
2022-12-17T09:20:29.407Z,-4.87
2022-12-17T09:23:20.749Z,-4.70
2022-12-17T09:26:13.262Z,-4.59
2022-12-17T09:29:04.081Z,-4.80
2022-12-17T09:31:54.996Z,-4.68
2022-12-17T09:34:45.685Z,-4.69
2022-12-17T09:37:35.975Z,-4.63
2022-12-17T09:40:34.821Z,-4.71
2022-12-17T09:43:37.369Z,-4.68
2022-12-17T09:46:46.639Z,-4.86
2022-12-17T09:49:44.646Z,-4.56
2022-12-17T09:52:59.195Z,-4.57
2022-12-17T09:55:56.173Z,-4.80
2022-12-17T09:58:49.427Z,-4.88
2022-12-17T10:01:46.501Z,-4.73
2022-12-17T10:04:44.658Z,-4.63
2022-12-17T10:07:39.895Z,-4.64
2022-12-17T10:10:42.660Z,-4.82
2022-12-17T10:13:38.791Z,-4.72
2022-12-17T10:16:52.330Z,-4.82
2022-12-17T10:19:53.182Z,-4.51
2022-12-17T10:22:43.614Z,-4.46
2022-12-17T10:25:39.355Z,-4.61
2022-12-17T10:28:33.115Z,-4.57
2022-12-17T10:31:40.976Z,-4.66
2022-12-17T10:34:35.097Z,-4.81
2022-12-17T10:37:38.408Z,-4.65
2022-12-17T10:40:52.737Z,-4.50
2022-12-17T10:43:49.889Z,-4.43
2022-12-17T10:46:45.887Z,-4.62
2022-12-17T10:49:43.578Z,-4.73
2022-12-17T10:52:51.270Z,-4.70
2022-12-17T10:55:50.105Z,-4.74
2022-12-17T10:58:48.440Z,-4.76
2022-12-17T11:01:44.945Z,-4.77
2022-12-17T11:04:48.036Z,-4.74
2022-12-17T11:07:45.872Z,-4.97
2022-12-17T11:10:41.284Z,-5.09
2022-12-17T11:13:36.316Z,-5.18
2022-12-17T11:16:47.237Z,-4.82
2022-12-17T11:20:00.829Z,-5.27
2022-12-17T11:23:01.095Z,-4.79
2022-12-17T11:26:09.930Z,-4.63
2022-12-17T11:29:00.621Z,-4.62
2022-12-17T11:31:50.909Z,-4.89
2022-12-17T11:35:19.306Z,-4.72
2022-12-17T11:38:37.385Z,-4.94
2022-12-17T11:41:54.985Z,-5.21
2022-12-17T11:45:12.148Z,-5.08
2022-12-17T11:48:02.571Z,-4.87
2022-12-17T11:51:27.884Z,-5.02
2022-12-17T11:54:27.632Z,-4.87
2022-12-17T11:57:43.059Z,-4.80
2022-12-17T12:00:41.930Z,-4.91
2022-12-17T12:03:53.313Z,-4.99
2022-12-17T12:07:33.257Z,-5.10
2022-12-17T12:10:30.095Z,-5.12
2022-12-17T12:13:40.551Z,-5.46
2022-12-17T12:16:47.291Z,-5.48
2022-12-17T12:20:13.680Z,-5.52
2022-12-17T12:23:19.544Z,-5.56
2022-12-17T12:26:12.865Z,-5.42
2022-12-17T12:29:17.216Z,-5.53
2022-12-17T12:32:45.326Z,-5.41
2022-12-17T12:35:41.865Z,-5.37
2022-12-17T12:38:45.926Z,-5.20
2022-12-17T12:42:00.196Z,-5.29
2022-12-17T12:44:59.123Z,-5.32
2022-12-17T12:48:01.468Z,-5.46
2022-12-17T12:50:51.718Z,-5.39
2022-12-17T12:53:43.588Z,-5.44
2022-12-17T12:56:44.580Z,-5.53
2022-12-17T12:59:48.579Z,-5.35
2022-12-17T13:02:39.156Z,-5.25
2022-12-17T13:05:35.564Z,-5.14
2022-12-17T13:08:24.260Z,-5.20
2022-12-17T13:10:56.439Z,-5.32
2022-12-17T13:13:39.937Z,-5.39
2022-12-17T13:16:29.754Z,-5.39
2022-12-17T13:19:20.593Z,-5.15
2022-12-17T13:21:52.464Z,-5.55
2022-12-17T13:24:27.621Z,-5.53
2022-12-17T13:26:59.590Z,-5.56
2022-12-17T13:29:38.158Z,-5.32
2022-12-17T13:32:25.353Z,-5.71
2022-12-17T13:35:18.285Z,-5.33
2022-12-17T13:38:02.999Z,-5.31
2022-12-17T13:40:34.945Z,-5.12
2022-12-17T13:43:17.681Z,-5.39
2022-12-17T13:45:52.970Z,-5.47
2022-12-17T13:48:27.957Z,-5.22
2022-12-17T13:51:03.715Z,-5.41
2022-12-17T13:53:35.886Z,-5.37
2022-12-17T13:56:10.809Z,-5.27
2022-12-17T13:58:43.354Z,-5.24
2022-12-17T14:01:15.417Z,-5.40
2022-12-17T14:04:11.015Z,-5.10
2022-12-17T14:06:43.092Z,-5.33
2022-12-17T14:09:19.351Z,-5.48
2022-12-17T14:12:11.352Z,-5.58
2022-12-17T14:14:48.802Z,-5.32
2022-12-17T14:17:24.205Z,-5.38
2022-12-17T14:20:04.487Z,-5.51
2022-12-17T14:22:41.525Z,-5.52
2022-12-17T14:25:22.278Z,-5.29
2022-12-17T14:28:03.838Z,-5.40
2022-12-17T14:31:02.503Z,-5.34
2022-12-17T14:33:35.696Z,-5.50
2022-12-17T14:36:29.492Z,-5.86
2022-12-17T14:39:04.423Z,-5.61
2022-12-17T14:41:57.414Z,-5.63
2022-12-17T14:44:30.880Z,-5.53
2022-12-17T14:47:19.269Z,-5.53
2022-12-17T14:49:56.141Z,-5.53
2022-12-17T14:52:36.169Z,-5.39
2022-12-17T14:55:28.591Z,-5.53
2022-12-17T14:58:12.568Z,-5.49
2022-12-17T15:00:54.048Z,-5.66
2022-12-17T15:03:29.121Z,-5.61
2022-12-17T15:06:07.455Z,-5.77
2022-12-17T15:08:45.562Z,-5.63
2022-12-17T15:11:20.623Z,-5.71
2022-12-17T15:13:56.377Z,-5.61
2022-12-17T15:16:29.062Z,-5.62
2022-12-17T15:19:01.530Z,-5.60
2022-12-17T15:21:33.817Z,-5.73
2022-12-17T15:24:10.708Z,-5.70
2022-12-17T15:26:42.645Z,-5.97
2022-12-17T15:29:14.713Z,-5.85
2022-12-17T15:31:46.786Z,-5.83
2022-12-17T15:34:18.859Z,-5.82
2022-12-17T15:36:50.895Z,-5.76
2022-12-17T15:39:22.880Z,-5.85
2022-12-17T15:42:13.643Z,-5.74
2022-12-17T15:44:45.656Z,-5.75
2022-12-17T15:47:17.607Z,-5.80
2022-12-17T15:49:49.532Z,-6.14
2022-12-17T15:52:21.566Z,-5.97
2022-12-17T15:54:53.722Z,-6.23
2022-12-17T15:57:25.752Z,-5.97
2022-12-17T15:59:57.802Z,-6.02
2022-12-17T16:02:29.959Z,-6.12
2022-12-17T16:05:02.077Z,-6.51
2022-12-17T16:07:34.250Z,-6.12
2022-12-17T16:10:07.194Z,-6.08
2022-12-17T16:12:39.670Z,-6.19
2022-12-17T16:15:15.622Z,-6.09
2022-12-17T16:17:47.654Z,-6.20
2022-12-17T16:20:19.623Z,-6.47
2022-12-17T16:22:51.597Z,-6.46
2022-12-17T16:25:23.656Z,-6.58
2022-12-17T16:27:55.630Z,-6.50
2022-12-17T16:30:27.669Z,-6.29
2022-12-17T16:33:00.010Z,-6.95
2022-12-17T16:35:32.010Z,-6.50
2022-12-17T16:38:03.967Z,-6.55
2022-12-17T16:40:35.955Z,-6.46
2022-12-17T16:43:07.886Z,-6.48
2022-12-17T16:45:51.122Z,-6.44
2022-12-17T16:48:23.108Z,-6.49
2022-12-17T16:50:55.163Z,-6.65
2022-12-17T16:53:27.622Z,-6.75
2022-12-17T16:55:59.582Z,-6.87
2022-12-17T16:58:31.599Z,-7.14
2022-12-17T17:01:03.916Z,-7.41
2022-12-17T17:03:39.808Z,-6.61
2022-12-17T17:06:11.906Z,-6.64
2022-12-17T17:08:44.973Z,-7.11
2022-12-17T17:11:22.694Z,-6.94
2022-12-17T17:13:55.294Z,-6.82
2022-12-17T17:16:28.094Z,-6.95
2022-12-17T17:19:00.553Z,-7.27
2022-12-17T17:21:51.077Z,-6.75
2022-12-17T17:24:26.960Z,-6.97
2022-12-17T17:26:58.935Z,-7.46
2022-12-17T17:29:31.306Z,-7.21
2022-12-17T17:32:11.849Z,-6.96
2022-12-17T17:34:45.350Z,-7.07
2022-12-17T17:37:17.400Z,-6.91
2022-12-17T17:39:49.456Z,-6.94
2022-12-17T17:42:21.409Z,-7.17
2022-12-17T17:44:54.488Z,-7.21
2022-12-17T17:47:26.467Z,-7.16
2022-12-17T17:49:58.523Z,-7.30
2022-12-17T17:52:30.487Z,-7.15
2022-12-17T17:55:02.699Z,-7.15
2022-12-17T17:57:34.986Z,-6.96
2022-12-17T18:00:07.821Z,-7.05
2022-12-17T18:02:40.128Z,-7.46
2022-12-17T18:05:12.179Z,-7.09
2022-12-17T18:07:44.061Z,-7.42
2022-12-17T18:10:16.028Z,-7.24
2022-12-17T18:13:06.810Z,-7.55
2022-12-17T18:15:39.224Z,-7.41
2022-12-17T18:18:14.640Z,-7.36
2022-12-17T18:20:46.885Z,-6.98
2022-12-17T18:23:18.843Z,-7.31
2022-12-17T18:25:51.269Z,-7.56
2022-12-17T18:28:23.251Z,-7.37
2022-12-17T18:30:55.418Z,-7.70
2022-12-17T18:33:27.396Z,-7.29
2022-12-17T18:35:59.363Z,-7.01
2022-12-17T18:38:31.295Z,-7.18
2022-12-17T18:41:28.047Z,-7.34
2022-12-17T18:44:05.311Z,-7.17
2022-12-17T18:46:38.176Z,-7.58
2022-12-17T18:49:12.916Z,-7.39
2022-12-17T18:51:50.742Z,-7.58
2022-12-17T18:54:28.433Z,-7.65
2022-12-17T18:57:01.586Z,-7.69
2022-12-17T18:59:34.945Z,-7.64
2022-12-17T19:02:12.023Z,-7.75
2022-12-17T19:04:44.174Z,-7.62
2022-12-17T19:07:16.199Z,-7.64
2022-12-17T19:09:48.145Z,-7.63
2022-12-17T19:12:20.264Z,-7.77
2022-12-17T19:14:52.211Z,-7.61
2022-12-17T19:17:24.154Z,-7.62
2022-12-17T19:19:56.106Z,-7.85
2022-12-17T19:22:28.104Z,-7.29
2022-12-17T19:25:00.060Z,-7.43
2022-12-17T19:27:32.091Z,-7.63
2022-12-17T19:30:04.545Z,-7.25
2022-12-17T19:32:36.602Z,-7.07
2022-12-17T19:35:08.990Z,-7.29
2022-12-17T19:37:41.354Z,-7.83
2022-12-17T19:40:13.779Z,-7.92
2022-12-17T19:42:46.741Z,-7.12
2022-12-17T19:45:19.147Z,-7.40
2022-12-17T19:47:51.477Z,-7.10
2022-12-17T19:50:23.473Z,-7.54
2022-12-17T19:52:55.688Z,-7.08
2022-12-17T19:55:28.500Z,-7.11
2022-12-17T19:58:00.554Z,-7.28
2022-12-17T20:00:32.532Z,-7.21
2022-12-17T20:03:05.139Z,-7.18
2022-12-17T20:05:37.100Z,-7.21
2022-12-17T20:08:09.231Z,-7.04
2022-12-17T20:10:41.255Z,-7.07
2022-12-17T20:13:13.313Z,-7.34
2022-12-17T20:15:45.265Z,-7.02
2022-12-17T20:18:17.461Z,-7.26
2022-12-17T20:20:49.412Z,-7.18
2022-12-17T20:23:21.385Z,-7.06
2022-12-17T20:26:05.526Z,-6.89
2022-12-17T20:28:38.470Z,-7.14
2022-12-17T20:31:12.048Z,-7.14
2022-12-17T20:33:44.490Z,-7.07
2022-12-17T20:36:18.486Z,-7.04
2022-12-17T20:38:50.653Z,-7.29
2022-12-17T20:41:25.507Z,-7.15
2022-12-17T20:43:58.433Z,-6.84
2022-12-17T20:46:30.927Z,-6.73
2022-12-17T20:49:04.368Z,-6.71
2022-12-17T20:51:36.449Z,-6.74
2022-12-17T20:54:09.365Z,-7.01
2022-12-17T20:56:41.480Z,-6.96
2022-12-17T20:59:19.151Z,-6.66
2022-12-17T21:02:06.499Z,-6.61
2022-12-17T21:04:38.758Z,-6.76
2022-12-17T21:07:10.832Z,-6.67
2022-12-17T21:09:42.822Z,-6.80
2022-12-17T21:12:15.257Z,-6.72
2022-12-17T21:14:47.225Z,-6.86
2022-12-17T21:17:19.336Z,-7.17
2022-12-17T21:19:51.329Z,-7.08
2022-12-17T21:22:23.535Z,-6.51
2022-12-17T21:24:55.509Z,-6.80
2022-12-17T21:27:27.475Z,-6.94
2022-12-17T21:30:00.997Z,-6.50
2022-12-17T21:32:33.976Z,-6.61
2022-12-17T21:35:06.385Z,-6.53
2022-12-17T21:37:38.357Z,-6.69
2022-12-17T21:40:11.131Z,-6.60
2022-12-17T21:43:01.550Z,-6.76
2022-12-17T21:45:39.315Z,-6.53
2022-12-17T21:48:14.147Z,-6.47
2022-12-17T21:50:47.499Z,-6.67
2022-12-17T21:53:20.303Z,-6.73
2022-12-17T21:56:05.515Z,-6.25
2022-12-17T21:58:38.190Z,-6.38
2022-12-17T22:01:17.189Z,-6.22
2022-12-17T22:03:53.564Z,-6.14
2022-12-17T22:06:28.294Z,-6.10
2022-12-17T22:09:12.541Z,-6.39
2022-12-17T22:12:10.680Z,-6.42
2022-12-17T22:14:42.721Z,-6.24
2022-12-17T22:17:14.743Z,-6.35
2022-12-17T22:19:46.820Z,-6.65
2022-12-17T22:22:18.796Z,-6.86
2022-12-17T22:24:50.856Z,-7.15
2022-12-17T22:27:23.578Z,-6.58
2022-12-17T22:30:14.150Z,-6.86
2022-12-17T22:33:07.601Z,-6.43
2022-12-17T22:37:19.766Z,-6.72
2022-12-17T22:41:02.177Z,-6.73
2022-12-17T22:44:31.666Z,-6.72
2022-12-17T22:44:54.224Z,-6.56
2022-12-17T22:47:28.383Z,-6.74
2022-12-17T22:50:00.376Z,-6.75
2022-12-17T22:52:32.866Z,-6.68
2022-12-17T22:55:05.935Z,-6.67
2022-12-17T22:57:38.651Z,-6.87
2022-12-17T23:00:21.142Z,-6.60
2022-12-17T23:02:54.977Z,-6.61
2022-12-17T23:05:28.315Z,-6.39
2022-12-17T23:08:00.578Z,-6.61
2022-12-17T23:10:32.603Z,-6.67
2022-12-17T23:13:04.586Z,-6.61
2022-12-17T23:15:37.421Z,-6.76
2022-12-17T23:18:10.541Z,-6.79
2022-12-17T23:20:42.565Z,-7.02
2022-12-17T23:23:14.512Z,-6.64
2022-12-17T23:25:46.537Z,-6.57
2022-12-17T23:28:18.419Z,-7.12
2022-12-17T23:30:50.348Z,-7.05
2022-12-17T23:33:22.370Z,-6.48
2022-12-17T23:36:13.612Z,-6.46
2022-12-17T23:38:46.950Z,-6.57
2022-12-17T23:41:24.746Z,-6.45
2022-12-17T23:43:57.820Z,-6.66
2022-12-17T23:46:30.650Z,-6.34
2022-12-17T23:49:06.431Z,-6.32
2022-12-17T23:51:38.403Z,-6.76
2022-12-17T23:54:10.918Z,-6.32
2022-12-17T23:56:42.925Z,-6.24
2022-12-17T23:59:14.917Z,-6.54
